Time;durP1;ratioP1;P1;durP2;ratioP2;P2;SDS_P1;SDS_P2;PMS_P1;PMS_P2;Temp;Humidity;BMP_temperature;BMP_pressure;BME280_temperature;BME280_humidity;BME280_pressure;Samples;Min_cycle;Max_cycle;Signal;HPM_P1;HPM_P2
2021/06/27 00:00:38;;;;;;;12.35;8.77;;;;;;;18.97;79.56;100686.06;5052015;28;20027;-85
2021/06/27 00:03:04;;;;;;;10.30;8.30;;;;;;;19.03;78.69;100678.28;5052051;28;20017;-85
2021/06/27 00:05:31;;;;;;;10.68;8.35;;;;;;;18.74;80.40;100683.81;5052196;28;20483;-84
2021/06/27 00:07:58;;;;;;;8.65;7.28;;;;;;;18.74;79.75;100686.47;5051572;28;20036;-85
2021/06/27 00:10:31;;;;;;;10.65;7.57;;;;;;;18.38;81.33;100685.56;5051722;28;20102;-85
2021/06/27 00:12:57;;;;;;;9.55;7.82;;;;;;;18.52;79.82;100682.44;5033906;28;20071;-85
2021/06/27 00:15:36;;;;;;;10.25;7.93;;;;;;;18.58;79.35;100692.47;5034018;28;20025;-85
2021/06/27 00:18:04;;;;;;;11.70;8.15;;;;;;;18.46;79.64;100683.00;5051725;28;20033;-85
2021/06/27 00:20:32;;;;;;;11.35;8.35;;;;;;;18.47;79.95;100684.69;5051606;28;20078;-85
2021/06/27 00:22:58;;;;;;;11.55;8.70;;;;;;;18.37;79.97;100690.06;5051493;28;20616;-85
2021/06/27 00:25:27;;;;;;;9.52;8.52;;;;;;;18.50;79.27;100683.53;5051891;28;20032;-85
2021/06/27 00:27:53;;;;;;;13.63;8.82;;;;;;;18.34;79.88;100684.19;5051989;28;20421;-85
2021/06/27 00:30:20;;;;;;;13.40;10.15;;;;;;;18.16;81.01;100687.63;5034060;28;20108;-85
2021/06/27 00:32:46;;;;;;;14.68;10.68;;;;;;;18.15;81.08;100680.66;5051685;28;20021;-85
2021/06/27 00:35:15;;;;;;;12.75;10.05;;;;;;;18.24;80.23;100687.72;5034658;28;20021;-85
2021/06/27 00:37:40;;;;;;;12.07;9.68;;;;;;;18.27;80.35;100691.94;5055509;28;20410;-85
2021/06/27 00:40:09;;;;;;;16.98;10.50;;;;;;;18.30;80.28;100698.75;5055643;28;20039;-85
2021/06/27 00:42:34;;;;;;;11.98;9.95;;;;;;;18.08;81.20;100694.66;5037673;28;20107;-85
2021/06/27 00:45:00;;;;;;;13.10;9.90;;;;;;;17.96;81.94;100692.19;5055844;28;20482;-85
2021/06/27 00:47:37;;;;;;;12.30;9.25;;;;;;;18.13;80.70;100698.56;5055654;28;20425;-85
2021/06/27 00:50:06;;;;;;;13.65;10.27;;;;;;;18.00;81.54;100700.69;5055632;28;20017;-85
2021/06/27 00:52:31;;;;;;;16.65;9.63;;;;;;;18.05;80.92;100693.16;5037076;28;20033;-85
2021/06/27 00:54:56;;;;;;;12.52;9.68;;;;;;;18.12;80.44;100699.53;5037742;28;20017;-86
2021/06/27 00:57:22;;;;;;;11.80;9.32;;;;;;;18.11;80.24;100687.25;5055507;28;20091;-85
2021/06/27 00:59:47;;;;;;;12.82;10.20;;;;;;;17.86;81.09;100687.91;5055568;28;20103;-85
2021/06/27 01:02:13;;;;;;;11.18;9.95;;;;;;;18.01;80.32;100691.75;5056035;28;20111;-85
2021/06/27 01:04:39;;;;;;;10.95;9.45;;;;;;;18.15;79.59;100691.28;5055524;28;20108;-85
2021/06/27 01:07:06;;;;;;;12.00;9.77;;;;;;;17.87;81.08;100692.22;5055405;28;20110;-85
2021/06/27 01:09:31;;;;;;;10.40;9.10;;;;;;;18.03;79.98;100693.28;5037485;28;20036;-85
2021/06/27 01:11:58;;;;;;;11.05;9.43;;;;;;;18.27;78.25;100689.28;5055475;28;20030;-85
2021/06/27 01:14:23;;;;;;;9.93;8.88;;;;;;;18.37;77.58;100705.16;5055449;28;20063;-85
2021/06/27 01:16:48;;;;;;;11.82;9.38;;;;;;;18.20;78.28;100694.31;5054771;28;20112;-85
2021/06/27 01:19:14;;;;;;;9.80;8.80;;;;;;;17.95;80.10;100689.66;5055585;28;20113;-85
2021/06/27 01:21:39;;;;;;;13.75;9.40;;;;;;;18.12;78.60;100699.53;5055663;28;20036;-85
2021/06/27 01:24:05;;;;;;;12.40;9.07;;;;;;;17.92;79.59;100688.13;5055341;28;20065;-85
2021/06/27 01:26:31;;;;;;;10.45;8.98;;;;;;;18.21;77.92;100689.84;5055448;28;20021;-85
2021/06/27 01:28:58;;;;;;;10.75;9.27;;;;;;;18.07;79.86;100687.66;5055033;28;20029;-85
2021/06/27 01:31:26;;;;;;;10.00;8.73;;;;;;;18.07;78.79;100688.53;5055068;28;20068;-85
2021/06/27 01:33:52;;;;;;;14.60;9.27;;;;;;;17.95;79.90;100668.41;5055403;28;20017;-85
2021/06/27 01:36:17;;;;;;;10.75;9.38;;;;;;;18.03;79.81;100682.66;5055230;28;20487;-85
2021/06/27 01:38:42;;;;;;;11.20;8.88;;;;;;;18.10;79.10;100676.75;5054462;28;20049;-85
2021/06/27 01:41:08;;;;;;;13.15;9.75;;;;;;;18.02;79.47;100672.16;5054808;28;20467;-85
2021/06/27 01:43:34;;;;;;;12.07;9.98;;;;;;;17.78;80.87;100677.97;5054871;28;20030;-85
2021/06/27 01:46:01;;;;;;;11.73;9.60;;;;;;;17.91;79.72;100673.19;5054280;28;20068;-85
2021/06/27 01:48:27;;;;;;;14.57;10.00;;;;;;;17.67;81.08;100670.97;5037040;28;20025;-85
2021/06/27 01:50:55;;;;;;;10.38;8.85;;;;;;;17.79;80.82;100664.53;5054930;28;20103;-85
2021/06/27 01:53:26;;;;;;;13.27;9.63;;;;;;;18.01;80.00;100660.72;5054598;28;20082;-85
2021/06/27 01:56:04;;;;;;;13.18;10.20;;;;;;;17.92;79.37;100668.72;5036919;28;20029;-85
2021/06/27 01:58:39;;;;;;;13.60;9.75;;;;;;;18.00;79.50;100666.16;5054347;28;20079;-85
2021/06/27 02:01:08;;;;;;;16.90;9.57;;;;;;;18.17;78.38;100665.41;5054163;28;20021;-85
2021/06/27 02:03:34;;;;;;;14.63;10.23;;;;;;;18.00;79.15;100663.50;5054416;28;20039;-85
2021/06/27 02:06:00;;;;;;;13.23;9.50;;;;;;;18.15;78.62;100664.69;5054416;28;20036;-85
2021/06/27 02:08:36;;;;;;;14.18;10.57;;;;;;;18.00;79.64;100655.53;5036297;28;20032;-85
2021/06/27 02:11:04;;;;;;;14.07;10.50;;;;;;;18.13;78.95;100669.34;5054866;28;20029;-85
2021/06/27 02:13:30;;;;;;;14.40;10.45;;;;;;;18.08;79.02;100668.09;5054761;28;20446;-85
2021/06/27 02:15:55;;;;;;;12.60;10.75;;;;;;;18.14;77.85;100667.50;5054282;28;20025;-85
2021/06/27 02:18:34;;;;;;;12.85;10.25;;;;;;;17.99;78.81;100664.47;5053914;28;20021;-85
2021/06/27 02:21:09;;;;;;;11.32;9.82;;;;;;;17.82;80.32;100682.81;5036164;28;20382;-85
2021/06/27 02:23:34;;;;;;;15.77;9.98;;;;;;;17.82;79.77;100661.56;5053881;28;20163;-85
2021/06/27 02:26:00;;;;;;;16.75;11.38;;;;;;;17.88;79.11;100652.22;5054502;28;20029;-85
2021/06/27 02:28:26;;;;;;;11.00;8.95;;;;;;;18.11;78.05;100657.16;5054662;28;20036;-85
2021/06/27 02:30:52;;;;;;;15.73;10.60;;;;;;;17.75;80.12;100652.53;5054093;28;20025;-85
2021/06/27 02:33:19;;;;;;;19.38;10.57;;;;;;;17.73;79.41;100641.22;5053854;28;20056;-85
2021/06/27 02:35:45;;;;;;;14.40;10.43;;;;;;;17.73;80.16;100635.91;5035665;28;20522;-85
2021/06/27 02:38:11;;;;;;;15.88;10.30;;;;;;;17.94;78.69;100635.69;5053393;28;20033;-85
2021/06/27 02:40:36;;;;;;;13.95;10.63;;;;;;;17.75;79.84;100641.91;5035802;28;20029;-84
2021/06/27 02:43:03;;;;;;;15.88;9.82;;;;;;;17.80;79.02;100634.31;5053684;28;20021;-85
2021/06/27 02:45:28;;;;;;;13.55;9.23;;;;;;;17.73;79.54;100633.25;5053792;28;20032;-85
2021/06/27 02:47:53;;;;;;;13.32;9.75;;;;;;;17.78;79.25;100633.63;5035879;28;20382;-85
2021/06/27 02:50:19;;;;;;;13.75;10.73;;;;;;;17.67;79.78;100635.63;5053529;28;20028;-85
2021/06/27 02:52:44;;;;;;;15.65;10.02;;;;;;;17.67;79.85;100633.81;5053612;28;20487;-85
2021/06/27 02:55:11;;;;;;;17.00;9.38;;;;;;;17.87;79.02;100629.31;5053423;28;20107;-85
2021/06/27 02:57:39;;;;;;;13.95;9.35;;;;;;;17.89;78.68;100637.97;5052456;28;20069;-84
2021/06/27 03:00:16;;;;;;;11.93;9.30;;;;;;;17.86;79.07;100630.28;5053165;28;20021;-85
2021/06/27 03:02:41;;;;;;;12.35;9.50;;;;;;;18.08;77.36;100630.88;5053304;28;20025;-85
2021/06/27 03:05:11;;;;;;;13.45;10.57;;;;;;;17.78;78.97;100630.97;5053372;28;20024;-85
2021/06/27 03:07:37;;;;;;;13.40;9.77;;;;;;;17.41;81.78;100637.09;5053150;28;20031;-84
2021/06/27 03:10:08;;;;;;;14.98;9.18;;;;;;;17.44;81.89;100628.84;5053126;28;20025;-85
2021/06/27 03:12:33;;;;;;;13.18;9.50;;;;;;;17.62;80.92;100634.25;5052434;28;20032;-84
2021/06/27 03:14:59;;;;;;;12.18;9.30;;;;;;;17.85;79.65;100631.25;5052595;28;20033;-84
2021/06/27 03:17:24;;;;;;;13.55;9.32;;;;;;;18.03;78.33;100626.03;5052926;28;20554;-85
2021/06/27 03:19:50;;;;;;;10.98;9.00;;;;;;;17.88;78.91;100627.50;5052971;28;20040;-85
2021/06/27 03:22:16;;;;;;;13.32;8.82;;;;;;;18.14;77.97;100619.66;5052958;28;20052;-85
2021/06/27 03:24:41;;;;;;;18.65;9.38;;;;;;;17.81;79.11;100624.53;5052787;28;20472;-85
2021/06/27 03:27:07;;;;;;;14.07;9.50;;;;;;;17.73;79.66;100612.00;5052614;28;20029;-85
2021/06/27 03:29:33;;;;;;;15.30;9.73;;;;;;;17.90;78.38;100604.28;5052238;28;20067;-85
2021/06/27 03:31:58;;;;;;;15.95;8.57;;;;;;;17.93;78.04;100598.66;5052737;28;20028;-85
2021/06/27 03:34:23;;;;;;;12.98;9.45;;;;;;;17.88;78.04;100592.97;5053157;28;20033;-85
2021/06/27 03:36:49;;;;;;;12.55;9.45;;;;;;;18.05;77.07;100602.81;5052945;28;20032;-85
2021/06/27 03:39:19;;;;;;;13.30;9.23;;;;;;;17.92;77.69;100594.34;5052986;28;20025;-83
2021/06/27 03:41:48;;;;;;;15.40;10.73;;;;;;;17.73;79.11;100589.91;5052921;28;20075;-84
2021/06/27 03:44:13;;;;;;;14.20;9.30;;;;;;;18.04;77.27;100593.16;5052862;28;20115;-84
2021/06/27 03:46:39;;;;;;;13.43;9.80;;;;;;;17.67;79.17;100587.84;5052819;28;20100;-84
2021/06/27 03:49:05;;;;;;;14.18;9.98;;;;;;;17.83;78.10;100591.59;5052662;28;20548;-84
2021/06/27 03:51:30;;;;;;;13.55;9.90;;;;;;;17.68;78.82;100598.31;5052214;28;20056;-84
2021/06/27 03:53:56;;;;;;;14.68;9.75;;;;;;;17.56;79.69;100591.53;5052201;28;20500;-84
2021/06/27 03:56:21;;;;;;;13.07;9.55;;;;;;;17.74;78.00;100592.41;5052460;28;20029;-84
2021/06/27 03:58:47;;;;;;;14.88;9.48;;;;;;;17.72;77.66;100589.06;5052384;28;20078;-84
2021/06/27 04:01:14;;;;;;;16.65;11.40;;;;;;;17.51;79.00;100588.47;5052015;28;20092;-84
2021/06/27 04:03:39;;;;;;;20.00;10.35;;;;;;;17.41;79.48;100591.97;5051669;28;20017;-83
2021/06/27 04:06:05;;;;;;;16.58;9.80;;;;;;;17.40;79.87;100585.00;5052231;28;20031;-84
2021/06/27 04:08:31;;;;;;;14.52;10.13;;;;;;;17.60;79.06;100587.59;5052262;28;20037;-84
2021/06/27 04:10:58;;;;;;;15.82;10.20;;;;;;;17.45;79.74;100598.66;5052276;28;20448;-84
2021/06/27 04:13:28;;;;;;;14.18;9.43;;;;;;;17.69;78.34;100599.97;5052412;28;20166;-84
2021/06/27 04:15:55;;;;;;;13.50;9.52;;;;;;;17.64;78.82;100600.44;5052072;28;20036;-84
2021/06/27 04:18:21;;;;;;;13.55;9.27;;;;;;;17.65;78.81;100609.22;5051825;28;20037;-84
2021/06/27 04:20:47;;;;;;;14.57;10.50;;;;;;;17.39;80.27;100598.41;5051842;28;20112;-84
2021/06/27 04:23:13;;;;;;;15.63;10.15;;;;;;;17.25;80.62;100597.88;5052165;28;20063;-84
2021/06/27 04:25:38;;;;;;;11.70;8.80;;;;;;;17.43;79.33;100600.63;5052010;28;20024;-84
2021/06/27 04:28:06;;;;;;;13.68;8.25;;;;;;;17.48;78.69;100596.72;5034092;28;20032;-84
2021/06/27 04:30:31;;;;;;;11.13;7.57;;;;;;;17.43;78.48;100594.47;5051918;28;20056;-84
2021/06/27 04:32:57;;;;;;;11.38;7.53;;;;;;;17.47;77.99;100600.34;5051817;28;20049;-84
2021/06/27 04:35:22;;;;;;;12.38;7.60;;;;;;;17.39;78.22;100583.31;5051624;28;20112;-84
2021/06/27 04:37:48;;;;;;;13.32;7.60;;;;;;;17.62;76.98;100572.34;5051516;28;20108;-84
2021/06/27 04:40:13;;;;;;;11.45;8.15;;;;;;;17.45;77.80;100572.13;5051808;28;20032;-84
2021/06/27 04:42:39;;;;;;;10.23;7.70;;;;;;;17.39;78.16;100570.03;5051554;28;20017;-84
2021/06/27 04:45:05;;;;;;;9.98;7.20;;;;;;;17.54;77.06;100565.13;5033915;28;20025;-84
2021/06/27 04:47:30;;;;;;;8.48;6.68;;;;;;;17.40;78.17;100557.63;5051842;28;20021;-86
2021/06/27 04:49:56;;;;;;;7.63;6.13;;;;;;;17.44;77.95;100566.97;5051470;28;20043;-84
2021/06/27 04:52:21;;;;;;;11.55;5.88;;;;;;;17.15;79.02;100569.69;5051564;28;20029;-84
2021/06/27 04:54:48;;;;;;;8.45;6.07;;;;;;;17.28;78.70;100561.41;5051835;28;20025;-84
2021/06/27 04:57:14;;;;;;;8.95;6.03;;;;;;;17.42;78.04;100559.16;5034326;28;20430;-84
2021/06/27 04:59:39;;;;;;;6.43;4.97;;;;;;;17.29;79.04;100549.84;5052085;28;20060;-84
2021/06/27 05:02:05;;;;;;;6.28;4.70;;;;;;;17.28;79.23;100548.16;5052053;28;20057;-84
2021/06/27 05:04:30;;;;;;;6.28;4.60;;;;;;;17.55;77.20;100550.00;5051654;28;20035;-84
2021/06/27 05:06:56;;;;;;;5.30;4.28;;;;;;;17.64;76.88;100549.16;5051764;28;20033;-84
2021/06/27 05:09:21;;;;;;;5.30;4.30;;;;;;;17.63;77.37;100534.19;5052155;28;20036;-84
2021/06/27 05:11:46;;;;;;;7.97;4.32;;;;;;;17.48;78.38;100531.19;5051889;28;20475;-84
2021/06/27 05:14:12;;;;;;;5.43;4.32;;;;;;;17.48;78.04;100533.84;5051871;28;20044;-84
2021/06/27 05:16:37;;;;;;;5.55;4.07;;;;;;;17.59;77.65;100551.38;5051762;28;20029;-84
2021/06/27 05:19:03;;;;;;;6.20;3.78;;;;;;;17.65;77.55;100537.53;5051164;28;20036;-84
2021/06/27 05:21:28;;;;;;;4.55;3.22;;;;;;;17.73;76.98;100539.44;5052262;28;20430;-84
2021/06/27 05:23:53;;;;;;;5.20;3.80;;;;;;;17.57;77.97;100548.03;5055699;28;20108;-85
2021/06/27 05:26:19;;;;;;;4.35;3.47;;;;;;;17.59;78.10;100543.44;5055385;28;20021;-84
2021/06/27 05:28:44;;;;;;;4.60;3.20;;;;;;;17.39;79.19;100540.00;5036987;28;20147;-84
2021/06/27 05:31:09;;;;;;;5.00;3.00;;;;;;;17.60;78.38;100553.91;5055273;28;20025;-85
2021/06/27 05:33:35;;;;;;;4.53;2.95;;;;;;;17.58;78.39;100545.25;5055225;28;20383;-85
2021/06/27 05:36:00;;;;;;;4.32;2.75;;;;;;;17.59;78.53;100548.75;5054786;28;20071;-85
2021/06/27 05:38:26;;;;;;;3.10;2.72;;;;;;;17.69;78.09;100554.84;5054665;28;20029;-85
2021/06/27 05:40:52;;;;;;;3.95;2.65;;;;;;;17.70;78.48;100553.03;5054388;28;20033;-86
2021/06/27 05:43:17;;;;;;;6.00;3.50;;;;;;;17.70;78.60;100548.56;5054739;28;20479;-84
2021/06/27 05:45:43;;;;;;;3.92;3.50;;;;;;;17.56;79.50;100547.22;5054413;28;20025;-84
2021/06/27 05:48:08;;;;;;;4.75;3.55;;;;;;;17.61;79.43;100544.13;5032270;28;20033;-84
2021/06/27 05:50:34;;;;;;;4.60;3.83;;;;;;;17.79;77.74;100544.16;5054641;28;20100;-85
2021/06/27 05:52:59;;;;;;;6.93;4.90;;;;;;;17.42;80.17;100542.41;5054564;28;20075;-84
2021/06/27 05:55:24;;;;;;;5.80;3.83;;;;;;;17.81;78.49;100545.72;5054653;28;20516;-85
2021/06/27 05:57:50;;;;;;;4.63;4.07;;;;;;;17.79;78.18;100547.69;5054278;28;20391;-85
2021/06/27 06:00:16;;;;;;;5.30;4.13;;;;;;;17.47;79.93;100547.25;5054364;28;20025;-85
2021/06/27 06:02:41;;;;;;;5.70;4.18;;;;;;;17.93;77.87;100540.22;5054396;28;20108;-85
2021/06/27 06:05:07;;;;;;;6.65;4.53;;;;;;;18.04;77.53;100540.00;5054259;28;20048;-85
2021/06/27 06:07:32;;;;;;;5.32;4.18;;;;;;;17.90;78.16;100538.69;5053921;28;20082;-85
2021/06/27 06:09:57;;;;;;;6.07;4.65;;;;;;;17.98;77.62;100533.47;5054114;28;20032;-84
2021/06/27 06:12:23;;;;;;;8.85;5.13;;;;;;;17.95;77.64;100539.09;5054439;28;20115;-85
2021/06/27 06:14:48;;;;;;;5.50;3.85;;;;;;;18.13;77.06;100539.13;5054954;28;20051;-85
2021/06/27 06:17:14;;;;;;;6.80;4.88;;;;;;;18.11;77.50;100529.59;5054753;28;20098;-85
2021/06/27 06:19:40;;;;;;;6.15;4.82;;;;;;;18.20;76.56;100531.38;5054521;28;20029;-85
2021/06/27 06:22:06;;;;;;;6.57;4.68;;;;;;;18.24;76.70;100533.56;5053983;28;20025;-85
2021/06/27 06:24:31;;;;;;;5.63;4.18;;;;;;;18.39;76.21;100538.38;5054216;28;20028;-84
2021/06/27 06:26:57;;;;;;;7.10;5.63;;;;;;;18.05;77.87;100539.03;5054130;28;20487;-84
2021/06/27 06:29:22;;;;;;;6.40;4.93;;;;;;;18.14;78.30;100530.16;5051874;28;20383;-83
2021/06/27 06:31:48;;;;;;;6.18;4.35;;;;;;;18.25;77.74;100526.44;5049462;28;20022;-83
2021/06/27 06:34:13;;;;;;;6.70;4.70;;;;;;;18.28;77.58;100530.63;5065507;28;20021;-84
2021/06/27 06:36:39;;;;;;;9.27;4.82;;;;;;;18.15;78.53;100525.69;5043110;28;20033;-83
2021/06/27 06:39:05;;;;;;;7.45;5.75;;;;;;;18.27;78.30;100529.78;5015634;28;20588;-84
2021/06/27 06:41:31;;;;;;;10.43;5.10;;;;;;;18.22;78.97;100527.56;5039625;28;20529;-84
2021/06/27 06:43:56;;;;;;;7.45;5.57;;;;;;;18.45;78.84;100534.28;5038062;28;20052;-83
2021/06/27 06:46:22;;;;;;;6.93;5.35;;;;;;;18.34;78.80;100528.19;5050948;28;20022;-84
2021/06/27 06:48:47;;;;;;;5.95;4.82;;;;;;;18.38;78.55;100534.03;5052920;28;20028;-84
2021/06/27 06:51:16;;;;;;;8.82;5.78;;;;;;;18.08;80.26;100541.38;5052081;28;20494;-84
2021/06/27 06:53:41;;;;;;;7.90;5.45;;;;;;;18.08;81.32;100536.06;5052959;28;20060;-84
2021/06/27 06:56:07;;;;;;;6.93;5.60;;;;;;;18.10;81.11;100541.25;5049957;28;20111;-84
2021/06/27 06:58:32;;;;;;;7.55;5.57;;;;;;;18.13;81.36;100541.78;5042970;28;20104;-84
2021/06/27 07:01:00;;;;;;;8.70;5.35;;;;;;;18.33;80.54;100545.13;5026440;28;20021;-84
2021/06/27 07:03:26;;;;;;;8.70;5.85;;;;;;;18.04;82.01;100534.69;5044061;28;20087;-84
2021/06/27 07:05:53;;;;;;;8.25;5.55;;;;;;;17.95;81.87;100523.16;5053093;28;20482;-84
2021/06/27 07:08:18;;;;;;;8.43;5.28;;;;;;;18.03;81.47;100530.38;5051090;28;20451;-84
2021/06/27 07:10:43;;;;;;;8.52;5.70;;;;;;;17.93;82.82;100540.22;5052241;28;20021;-84
2021/06/27 07:13:09;;;;;;;9.80;5.95;;;;;;;18.25;81.61;100539.75;5051709;28;20052;-84
2021/06/27 07:15:35;;;;;;;8.70;5.78;;;;;;;18.32;80.82;100539.97;5053241;28;20557;-84
2021/06/27 07:18:00;;;;;;;9.02;6.32;;;;;;;18.17;81.64;100542.31;5049212;28;20167;-84
2021/06/27 07:20:25;;;;;;;10.63;6.35;;;;;;;18.16;81.72;100546.78;5052597;28;20017;-84
2021/06/27 07:22:51;;;;;;;9.32;5.95;;;;;;;18.37;80.57;100556.31;5052063;28;20119;-84
2021/06/27 07:25:16;;;;;;;13.07;6.50;;;;;;;18.37;80.67;100549.16;5034318;28;20475;-84
2021/06/27 07:27:42;;;;;;;10.10;6.20;;;;;;;18.47;80.33;100545.59;5051138;28;20025;-83
2021/06/27 07:30:08;;;;;;;10.18;5.88;;;;;;;18.55;79.81;100543.84;5050261;28;20033;-84
2021/06/27 07:32:34;;;;;;;11.30;6.68;;;;;;;18.46;80.60;100544.75;5051134;28;20074;-84
2021/06/27 07:35:02;;;;;;;10.45;6.65;;;;;;;18.60;79.52;100543.38;5051936;28;20037;-84
2021/06/27 07:37:28;;;;;;;9.73;6.63;;;;;;;18.50;80.13;100551.41;5052325;28;20060;-84
2021/06/27 07:39:53;;;;;;;11.88;6.47;;;;;;;18.53;80.12;100551.13;5052180;28;20434;-84
2021/06/27 07:42:18;;;;;;;12.77;7.18;;;;;;;18.68;79.04;100554.09;5052224;28;20516;-84
2021/06/27 07:44:44;;;;;;;11.85;6.85;;;;;;;18.75;78.75;100541.00;5051003;28;20025;-84
2021/06/27 07:47:09;;;;;;;14.38;6.82;;;;;;;18.60;79.71;100551.34;5050921;28;20106;-84
2021/06/27 07:49:34;;;;;;;11.75;6.97;;;;;;;18.56;80.02;100550.84;5041528;28;20403;-84
2021/06/27 07:52:00;;;;;;;9.82;6.40;;;;;;;18.56;80.36;100542.88;5031946;28;20060;-84
2021/06/27 07:54:25;;;;;;;10.52;6.20;;;;;;;18.68;80.25;100542.59;5048043;28;20071;-84
2021/06/27 07:56:50;;;;;;;9.93;6.20;;;;;;;18.82;80.73;100555.41;5051490;28;20382;-84
2021/06/27 07:59:16;;;;;;;14.27;8.18;;;;;;;18.69;81.31;100554.94;5031997;28;20025;-84
2021/06/27 08:01:42;;;;;;;11.35;6.68;;;;;;;18.77;81.10;100550.50;5050025;28;20028;-84
2021/06/27 08:04:08;;;;;;;10.18;6.65;;;;;;;18.24;84.41;100543.38;5039551;28;20494;-84
2021/06/27 08:06:33;;;;;;;11.27;7.38;;;;;;;18.51;83.53;100547.78;5033125;28;20029;-84
2021/06/27 08:08:58;;;;;;;13.55;7.25;;;;;;;18.62;83.03;100544.91;5045063;28;20037;-84
2021/06/27 08:11:24;;;;;;;11.18;6.80;;;;;;;18.60;83.93;100532.72;5049333;28;20024;-84
2021/06/27 08:13:49;;;;;;;11.60;6.78;;;;;;;18.62;84.04;100526.28;5050851;28;20463;-83
2021/06/27 08:16:14;;;;;;;14.23;7.57;;;;;;;18.37;84.92;100533.22;5031547;28;20099;-84
2021/06/27 08:18:40;;;;;;;12.13;7.43;;;;;;;18.48;84.43;100532.13;5041527;28;20057;-83
2021/06/27 08:21:05;;;;;;;15.82;8.60;;;;;;;18.41;84.84;100531.09;5049848;28;20024;-84
2021/06/27 08:23:31;;;;;;;12.75;7.50;;;;;;;18.71;83.86;100521.84;5049661;28;20029;-84
2021/06/27 08:25:56;;;;;;;12.32;6.50;;;;;;;18.83;82.86;100525.97;5045779;28;20052;-83
2021/06/27 08:28:22;;;;;;;15.73;7.97;;;;;;;18.78;82.95;100532.72;5048157;28;20025;-84
2021/06/27 08:30:47;;;;;;;10.60;7.40;;;;;;;18.85;82.51;100523.16;5044535;28;20116;-84
2021/06/27 08:33:13;;;;;;;10.77;7.00;;;;;;;18.81;81.98;100527.13;5049492;28;20025;-84
2021/06/27 08:35:38;;;;;;;12.93;7.32;;;;;;;18.91;82.21;100527.03;5051145;28;20395;-84
2021/06/27 08:38:04;;;;;;;10.85;6.88;;;;;;;19.07;81.56;100528.97;5051046;28;20108;-84
2021/06/27 08:40:30;;;;;;;14.05;7.80;;;;;;;18.79;83.04;100524.59;5051765;28;20033;-84
2021/06/27 08:42:55;;;;;;;13.77;8.32;;;;;;;18.72;83.78;100515.56;5051294;28;20086;-84
2021/06/27 08:45:23;;;;;;;14.65;7.70;;;;;;;19.08;82.09;100523.50;5051306;28;20033;-84
2021/06/27 08:47:51;;;;;;;11.35;7.55;;;;;;;18.93;82.89;100507.25;5050541;28;20025;-84
2021/06/27 08:50:16;;;;;;;13.73;7.47;;;;;;;18.97;81.68;100515.75;5046738;28;20353;-84
2021/06/27 08:52:44;;;;;;;15.73;9.07;;;;;;;19.03;82.07;100526.59;5050883;28;20112;-84
2021/06/27 08:55:10;;;;;;;12.80;7.80;;;;;;;19.10;81.40;100502.06;5051550;28;20390;-85
2021/06/27 08:57:35;;;;;;;15.10;8.70;;;;;;;19.24;80.75;100511.28;5053385;28;20045;-85
2021/06/27 09:00:02;;;;;;;19.95;8.48;;;;;;;19.19;81.00;100503.75;5050594;28;20009;-84
2021/06/27 09:02:29;;;;;;;13.02;9.23;;;;;;;19.42;80.56;100510.19;5073811;28;20020;-84
2021/06/27 09:04:54;;;;;;;15.43;8.52;;;;;;;19.37;80.08;100506.34;5054358;28;20032;-85
2021/06/27 09:07:34;;;;;;;14.85;8.07;;;;;;;19.35;80.35;100501.19;5039831;28;20017;-85
2021/06/27 09:10:09;;;;;;;16.38;8.73;;;;;;;19.47;81.27;100503.56;5026163;28;20040;-85
2021/06/27 09:12:50;;;;;;;15.48;9.98;;;;;;;19.17;81.75;100511.91;5049963;28;20031;-85
2021/06/27 09:15:38;;;;;;;16.00;9.90;;;;;;;19.31;81.39;100506.97;5042285;28;20491;-85
2021/06/27 09:18:09;;;;;;;20.58;10.25;;;;;;;19.03;82.36;100507.97;5044660;28;20882;-84
2021/06/27 09:20:36;;;;;;;15.25;9.50;;;;;;;19.41;80.00;100508.53;5032161;28;20033;-89
2021/06/27 09:23:01;;;;;;;14.98;9.25;;;;;;;19.72;79.57;100504.53;5036330;28;20025;-85
2021/06/27 09:25:30;;;;;;;15.35;10.15;;;;;;;19.67;78.92;100496.13;5019661;28;20037;-85
2021/06/27 09:28:14;;;;;;;15.15;8.95;;;;;;;19.98;77.89;100505.28;5039177;28;20485;-85
2021/06/27 09:30:53;;;;;;;18.63;9.35;;;;;;;20.15;78.06;100494.63;5054115;28;20028;-85
2021/06/27 09:33:24;;;;;;;14.30;8.13;;;;;;;20.03;77.32;100495.97;5054520;28;20119;-88
2021/06/27 09:36:00;;;;;;;15.45;8.68;;;;;;;20.23;76.38;100496.47;5032878;28;20124;-88
2021/06/27 09:38:25;;;;;;;11.60;7.82;;;;;;;20.04;76.15;100490.44;5031389;28;20391;-87
2021/06/27 09:40:57;;;;;;;13.23;8.10;;;;;;;20.52;76.21;100491.50;5048921;28;20032;-87
2021/06/27 09:43:23;;;;;;;15.35;7.78;;;;;;;20.14;75.82;100493.81;5039176;28;20613;-83
2021/06/27 09:45:53;;;;;;;14.18;9.15;;;;;;;20.15;75.77;100491.97;5053950;28;20017;-84
2021/06/27 09:48:19;;;;;;;15.98;8.30;;;;;;;20.39;74.38;100478.66;5053249;28;20115;-84
2021/06/27 09:50:45;;;;;;;16.63;8.88;;;;;;;20.93;72.57;100491.50;5053941;28;20112;-84
2021/06/27 09:53:37;;;;;;;12.65;8.20;;;;;;;21.06;71.89;100482.13;5053816;28;20021;-84
2021/06/27 09:56:03;;;;;;;;;;;;;;;21.22;70.49;100492.75;5053359;28;20498;-84
2021/06/27 09:58:29;;;;;;;11.50;7.80;;;;;;;20.90;70.87;100480.31;5046666;28;19920;-85
2021/06/27 10:00:57;;;;;;;13.07;8.20;;;;;;;20.94;70.87;100485.13;5044650;28;20029;-84
2021/06/27 10:03:23;;;;;;;12.02;7.45;;;;;;;21.28;70.03;100481.38;5050520;28;20029;-83
2021/06/27 10:05:49;;;;;;;12.85;8.40;;;;;;;21.47;68.92;100484.69;5053465;28;20075;-83
2021/06/27 10:08:28;;;;;;;13.23;8.57;;;;;;;21.62;69.25;100490.94;5050775;28;20029;-83
2021/06/27 10:11:16;;;;;;;9.95;7.32;;;;;;;21.58;67.96;100482.47;5052832;28;20021;-83
2021/06/27 10:14:04;;;;;;;12.60;7.85;;;;;;;21.36;68.91;100489.34;5049675;28;20029;-84
2021/06/27 10:16:33;;;;;;;10.63;7.65;;;;;;;21.42;68.36;100485.16;5045498;28;20052;-83
2021/06/27 10:18:59;;;;;;;11.93;8.45;;;;;;;21.12;69.14;100481.44;5052366;28;20040;-83
2021/06/27 10:21:26;;;;;;;11.00;7.93;;;;;;;20.89;70.24;100475.97;5052991;28;20067;-83
2021/06/27 10:23:53;;;;;;;15.70;9.18;;;;;;;20.65;71.41;100482.19;5053207;28;20470;-83
2021/06/27 10:26:21;;;;;;;11.52;7.85;;;;;;;20.86;71.66;100474.47;5049953;28;20033;-83
2021/06/27 10:28:48;;;;;;;12.43;9.20;;;;;;;20.88;70.95;100482.31;5052725;28;20033;-83
2021/06/27 10:31:14;;;;;;;11.02;7.53;;;;;;;21.24;69.62;100480.03;5052688;28;20025;-83
2021/06/27 10:33:41;;;;;;;16.33;8.85;;;;;;;21.07;69.50;100483.75;5051813;28;20108;-83
2021/06/27 10:36:09;;;;;;;13.30;7.80;;;;;;;21.49;68.73;100474.66;5051526;28;20056;-83
2021/06/27 10:38:38;;;;;;;10.23;7.03;;;;;;;21.86;67.93;100473.97;5052177;28;20482;-83
2021/06/27 10:41:03;;;;;;;11.13;7.60;;;;;;;21.90;66.91;100474.41;5034588;28;20063;-83
2021/06/27 10:43:58;;;;;;;10.45;7.55;;;;;;;21.95;66.70;100472.06;5052574;28;20471;-83
2021/06/27 10:46:48;;;;;;;12.07;7.50;;;;;;;22.06;66.47;100471.66;5053178;28;20060;-82
2021/06/27 10:49:34;;;;;;;12.13;7.60;;;;;;;21.87;66.47;100464.09;5053001;28;20021;-83
2021/06/27 10:52:08;;;;;;;10.88;7.32;;;;;;;22.02;66.52;100462.34;5029177;28;20031;-83
2021/06/27 10:54:41;;;;;;;13.80;8.27;;;;;;;22.08;66.04;100472.31;5047684;28;20503;-83
2021/06/27 10:57:07;;;;;;;12.00;7.80;;;;;;;22.28;65.23;100477.22;5052389;28;20029;-83
2021/06/27 10:59:38;;;;;;;13.60;8.15;;;;;;;22.47;64.49;100466.03;5052810;28;20092;-83
2021/06/27 11:02:16;;;;;;;12.23;7.15;;;;;;;22.54;64.18;100463.44;5052575;28;20029;-83
2021/06/27 11:04:42;;;;;;;11.68;8.32;;;;;;;22.32;64.55;100462.47;5050864;28;20016;-83
2021/06/27 11:07:07;;;;;;;14.50;8.13;;;;;;;22.84;63.40;100464.31;5038016;28;20394;-83
2021/06/27 11:09:32;;;;;;;11.60;7.15;;;;;;;23.02;62.35;100461.31;5052753;28;20059;-83
2021/06/27 11:11:59;;;;;;;11.88;8.43;;;;;;;22.94;62.59;100459.53;5052765;28;20025;-83
2021/06/27 11:14:26;;;;;;;11.43;7.55;;;;;;;23.36;61.50;100447.38;5052386;28;20566;-83
2021/06/27 11:17:04;;;;;;;10.57;7.07;;;;;;;23.65;61.03;100453.66;5034844;28;20391;-84
2021/06/27 11:19:30;;;;;;;12.27;7.20;;;;;;;23.41;60.88;100462.03;5051419;28;20044;-83